Christmas Island, Australian Islands

2:45 PM CXT on April 28, 2015 (GMT +0700)
Christmas Island | | Change Station
CLOSE
Current Station
Personal Weather Station
Location: Christmas Island, WESTERN AUSTRALIA
Elevation: 732 ft
Nearby Weather Stations

Elev 732 ft 10.42 °S, 105.69 °E | Updated 1 minute ago

Overcast
Overcast
81.7 °F
Feels Like 86 °F
N
11.0
Wind Variable Wind from SW
Gusts 15.0 mph

Today
High -- | Low -- °F
--% Chance of Precip.
Yesterday
High -- | Low -- °F
Precip. -- in
6:01 AM 5:47 PM
Waxing Gibbous, 71% visible
Pressure 29.83 in
Visibility 6.2 miles
Clouds Scattered Clouds 2000 ft
Scattered Clouds 4100 ft
Heat Index 86 °F
Dew Point 71 °F
Humidity 69%
Rainfall 0.07 in
Snow Depth Not available.
UV 8 out of 12
Pollen Not available.
Air Quality Not available.
Flu Activity Not available.
METAR YPXM 280700Z AUTO 23008KT 9999 -RA SCT020 SCT041 29/24 Q1010

More Conditions Fewer Conditions

Pressure 29.83 in
Visibility 6.2 miles
Clouds Scattered Clouds 2000 ft
Scattered Clouds 4100 ft
Heat Index 86 °F
Dew Point 71 °F
Humidity 69%
Rainfall 0.07 in
Snow Depth Not available.
UV 8 out of 12
Pollen Not available.
Air Quality Not available.
Flu Activity Not available.
METAR YPXM 280700Z AUTO 23008KT 9999 -RA SCT020 SCT041 29/24 Q1010

More Conditions Fewer Conditions

10-Day Weather Forecast

Almanac

Astronomy

Apr. 28, 2015 Rise Set
Actual Time
Civil Twilight
Nautical Twilight
Astronomical Twilight
Moon
Length of Visible Light
Length of Day
Tomorrow will be .
, % of the Moon is Illuminated

Today's Extremes

Country Highs Country Lows

Community

WunderPhotos

Upload Photos

1,817,596 photos uploaded!

WunderBlogs® & News

Nearby

Air Quality

  Air Quality AQ Index Pollutant
Not available.

Snow Depth

Station Depth Elevation

Earthquake Activity

City Distance Mag. Time & Date
Minimum magnitude displayed is 2.5.

Coastal Water Temperatures

Place Temperature

Stations

Nearby Weather Stations

Station Location Temp. Windchill Dew Point Humidity Wind Precip. Elev Updated Type